Time;durP1;ratioP1;P1;durP2;ratioP2;P2;SDS_P1;SDS_P2;PMS_P1;PMS_P2;Temp;Humidity;BMP_temperature;BMP_pressure;BME280_temperature;BME280_humidity;BME280_pressure;Samples;Min_cycle;Max_cycle;Signal;HPM_P1;HPM_P2
2022/01/28 00:02:37;;;;;;;;;40.25;33.00;;;;;9.71;78.16;102617.78;5054384;28;45606;-79
2022/01/28 00:05:00;;;;;;;;;34.25;29.75;;;;;9.69;78.08;102612.59;5054392;28;45759;-78
2022/01/28 00:07:26;;;;;;;;;34.75;31.25;;;;;9.72;77.94;102611.63;5054751;28;45868;-78
2022/01/28 00:09:51;;;;;;;;;32.50;25.00;;;;;9.75;77.91;102610.66;5054843;28;45736;-78
2022/01/28 00:12:17;;;;;;;;;38.00;32.25;;;;;9.71;78.09;102604.69;5054335;28;45609;-79
2022/01/28 00:39:28;;;;;;;;;37.75;29.00;;;;;9.75;78.11;102632.47;4952937;28;45656;-79
2022/01/28 00:41:54;;;;;;;;;34.25;30.50;;;;;9.82;78.20;102646.19;4952960;28;45601;-80
2022/01/28 00:44:19;;;;;;;;;32.50;28.50;;;;;9.81;78.29;102644.47;4953184;28;47369;-78
2022/01/28 00:50:06;;;;;;;;;40.00;33.25;;;;;9.84;78.04;102650.44;4952619;28;45626;-78
2022/01/28 00:52:32;;;;;;;;;34.50;30.00;;;;;9.85;78.03;102643.44;4952929;28;45620;-78
2022/01/28 00:54:57;;;;;;;;;38.50;33.25;;;;;9.87;78.25;102644.25;4953070;28;45698;-77
2022/01/28 00:57:22;;;;;;;;;39.75;32.25;;;;;9.84;78.29;102655.69;4952938;28;46109;-78
2022/01/28 00:59:48;;;;;;;;;36.00;31.00;;;;;9.87;78.25;102659.97;5001007;28;45706;-78
2022/01/28 01:05:35;;;;;;;;;43.00;34.00;;;;;9.83;78.42;102658.34;5053627;28;46182;-79
2022/01/28 01:08:03;;;;;;;;;32.50;31.25;;;;;9.86;78.42;102676.59;5069190;28;46100;-77
2022/01/28 01:10:29;;;;;;;;;29.25;27.75;;;;;9.84;78.11;102665.31;5053907;28;45875;-78
2022/01/28 01:12:54;;;;;;;;;41.00;34.75;;;;;9.83;78.45;102667.06;5058880;28;45882;-79
2022/01/28 01:15:24;;;;;;;;;42.00;30.75;;;;;9.84;78.23;102658.31;5058302;28;47186;-78
2022/01/28 01:21:18;;;;;;;;;42.75;36.00;;;;;9.83;78.18;102677.53;5060973;28;45981;-75
2022/01/28 01:23:51;;;;;;;;;41.75;34.00;;;;;9.83;78.12;102674.06;5059119;28;46149;-78
2022/01/28 01:26:16;;;;;;;;;32.50;28.50;;;;;9.80;77.97;102679.41;5039371;28;47685;-78
2022/01/28 01:28:43;;;;;;;;;32.75;29.75;;;;;9.84;78.37;102686.25;5057416;28;45848;-78
2022/01/28 01:31:13;;;;;;;;;33.75;28.25;;;;;9.84;78.08;102675.78;5057808;28;45788;-78
2022/01/28 01:37:40;;;;;;;;;34.25;31.00;;;;;9.82;78.24;102690.69;5055603;28;45475;-78
2022/01/28 01:40:06;;;;;;;;;35.25;29.50;;;;;9.81;77.91;102687.22;5056904;28;45990;-78
2022/01/28 01:42:51;;;;;;;;;36.50;29.50;;;;;9.81;78.12;102683.75;5056596;28;45487;-79
2022/01/28 01:53:09;;;;;;;;;39.50;31.00;;;;;9.85;77.98;102701.03;5056678;28;45510;-78
2022/01/28 01:55:35;;;;;;;;;33.75;29.75;;;;;9.82;77.83;102709.88;5056894;28;45535;-79
2022/01/28 01:58:00;;;;;;;;;33.00;28.50;;;;;9.78;77.82;102702.16;5056669;28;46463;-79
2022/01/28 02:00:26;;;;;;;;;42.75;33.50;;;;;9.77;78.01;102706.53;5056608;28;45467;-78
2022/01/28 02:02:51;;;;;;;;;39.00;32.75;;;;;9.80;77.79;102708.22;5056297;28;45649;-77
2022/01/28 02:05:17;;;;;;;;;42.50;34.00;;;;;9.79;77.94;102714.34;5056778;28;45629;-77
2022/01/28 02:07:44;;;;;;;;;38.25;35.50;;;;;9.72;77.85;102703.22;5056017;28;47216;-80
2022/01/28 02:10:10;;;;;;;;;42.50;31.25;;;;;9.78;77.57;102720.47;5056018;28;47123;-78
2022/01/28 02:12:50;;;;;;;;;39.00;33.25;;;;;9.67;77.74;102706.00;5056472;28;45632;-79
2022/01/28 02:15:16;;;;;;;;;40.00;34.75;;;;;9.74;77.80;102716.25;5056361;28;45848;-79
2022/01/28 02:17:41;;;;;;;;;33.25;32.00;;;;;9.75;77.59;102718.84;5056121;28;45814;-78
2022/01/28 02:20:11;;;;;;;;;39.25;33.75;;;;;9.75;77.63;102728.44;5056311;28;46036;-78
2022/01/28 02:22:36;;;;;;;;;35.00;33.00;;;;;9.66;77.65;102727.84;5055575;28;46031;-79
2022/01/28 02:25:02;;;;;;;;;36.25;31.00;;;;;9.71;77.70;102722.47;5056467;28;45653;-79
2022/01/28 02:27:28;;;;;;;;;36.75;29.00;;;;;9.70;77.53;102728.59;5055631;28;46862;-79
2022/01/28 02:29:55;;;;;;;;;34.25;30.25;;;;;9.68;77.46;102730.41;5056269;28;45691;-77
2022/01/28 02:32:20;;;;;;;;;41.75;33.50;;;;;9.63;77.65;102727.94;5055964;28;45960;-79
2022/01/28 02:34:46;;;;;;;;;41.00;31.00;;;;;9.56;77.43;102717.72;5056265;28;45698;-80
2022/01/28 02:37:11;;;;;;;;;36.75;28.50;;;;;9.63;77.68;102733.19;5055490;28;46214;-79
2022/01/28 02:39:36;;;;;;;;;39.50;27.25;;;;;9.61;77.71;102732.38;5037648;28;46048;-79
2022/01/28 02:42:15;;;;;;;;;38.75;33.00;;;;;9.59;77.56;102742.03;5055978;28;45805;-80
2022/01/28 02:47:13;;;;;;;;;33.25;27.25;;;;;9.47;77.53;102738.97;5056163;28;45629;-76
2022/01/28 02:53:09;;;;;;;;;33.50;28.75;;;;;9.47;77.62;102741.56;5055707;28;45562;-79
2022/01/28 02:55:41;;;;;;;;;35.00;27.00;;;;;9.44;77.52;102739.06;5055907;28;45638;-81
2022/01/28 02:58:22;;;;;;;;;32.50;30.50;;;;;9.39;77.37;102727.91;5055655;28;45595;-80
2022/01/28 03:00:48;;;;;;;;;32.00;26.75;;;;;9.40;77.35;102729.59;5055536;28;46086;-80
2022/01/28 03:03:18;;;;;;;;;39.75;32.00;;;;;9.43;77.31;102747.81;5055600;28;45866;-80
2022/01/28 03:05:43;;;;;;;;;33.50;29.25;;;;;9.39;77.14;102741.00;5055408;28;45916;-80
2022/01/28 03:08:09;;;;;;;;;40.50;34.00;;;;;9.41;77.48;102734.78;5055675;28;45945;-81
2022/01/28 03:15:33;;;;;;;;;32.25;28.50;;;;;9.42;77.15;102719.94;5055357;28;45669;-78
2022/01/28 03:18:18;;;;;;;;;38.50;30.00;;;;;9.34;77.16;102708.88;5055345;28;46530;-79
2022/01/28 03:20:57;;;;;;;;;30.25;26.50;;;;;9.40;77.16;102712.13;5055502;28;46180;-80
2022/01/28 03:23:23;;;;;;;;;35.25;28.50;;;;;9.45;77.00;102717.22;5055457;28;45869;-79
2022/01/28 03:25:49;;;;;;;;;30.75;30.00;;;;;9.38;76.96;102700.03;5055204;28;45725;-80
2022/01/28 03:28:18;;;;;;;;;31.00;26.25;;;;;9.49;77.17;102711.00;5055161;28;45606;-81
2022/01/28 03:30:44;;;;;;;;;35.25;29.75;;;;;9.52;76.84;102716.13;5055174;28;46286;-80
2022/01/28 03:33:09;;;;;;;;;42.75;32.50;;;;;9.47;77.06;102711.03;5054439;28;45606;-79
2022/01/28 03:35:35;;;;;;;;;33.00;29.00;;;;;9.53;76.87;102728.31;5071015;28;45580;-79
2022/01/28 03:38:03;;;;;;;;;36.00;30.00;;;;;9.49;77.15;102719.72;5054800;28;45576;-79
2022/01/28 03:40:33;;;;;;;;;32.75;28.75;;;;;9.57;77.01;102715.06;5054929;28;46046;-80
2022/01/28 03:42:59;;;;;;;;;33.00;29.00;;;;;9.57;76.90;102712.44;5055101;28;45900;-78
2022/01/28 03:45:24;;;;;;;;;39.50;36.00;;;;;9.61;76.78;102723.66;5055344;28;45546;-80
2022/01/28 03:47:50;;;;;;;;;33.25;29.75;;;;;9.58;76.75;102722.00;5054839;28;45614;-78
2022/01/28 03:53:37;;;;;;;;;36.75;25.25;;;;;9.61;76.74;102731.50;5054940;28;45904;-79
2022/01/28 03:56:03;;;;;;;;;39.00;31.75;;;;;9.58;76.47;102734.25;5054918;28;45618;-80
2022/01/28 03:58:28;;;;;;;;;36.25;28.50;;;;;9.58;76.76;102736.84;5054887;28;46710;-80
2022/01/28 04:00:55;;;;;;;;;30.50;27.25;;;;;9.60;76.50;102746.38;5054657;28;46087;-79
2022/01/28 04:13:47;;;;;;;;;39.00;28.50;;;;;9.58;76.72;102774.34;5054736;28;45848;-81
2022/01/28 04:18:40;;;;;;;;;38.25;31.75;;;;;9.55;76.58;102765.75;5054167;28;45730;-80
2022/01/28 04:21:06;;;;;;;;;32.50;28.25;;;;;9.52;76.63;102753.59;5054472;28;45987;-79
2022/01/28 04:23:31;;;;;;;;;36.25;31.25;;;;;9.54;76.64;102762.28;5054341;28;45983;-80
2022/01/28 04:25:56;;;;;;;;;34.75;27.50;;;;;9.39;76.56;102730.53;5054881;28;45463;-80
2022/01/28 04:28:22;;;;;;;;;40.75;31.75;;;;;9.50;76.34;102758.03;5054651;28;46231;-78
2022/01/28 04:30:47;;;;;;;;;32.75;28.00;;;;;9.44;76.17;102746.94;5054292;28;46043;-78
2022/01/28 04:33:13;;;;;;;;;32.25;27.75;;;;;9.51;76.38;102761.50;5054436;28;45768;-79
2022/01/28 04:44:37;;;;;;;;;31.25;27.75;;;;;9.39;76.46;102749.69;5055958;28;45819;-79
2022/01/28 04:47:12;;;;;;;;;35.75;29.75;;;;;9.47;76.28;102757.28;5061208;28;45587;-80
2022/01/28 04:52:40;;;;;;;;;36.75;26.50;;;;;9.47;76.18;102770.34;5060585;28;45709;-80
2022/01/28 05:11:08;;;;;;;;;39.75;29.25;;;;;9.35;76.37;102783.81;4998180;28;45687;-78
2022/01/28 05:29:03;;;;;;;;;36.50;29.25;;;;;9.29;76.64;102808.41;4959250;28;45768;-77
2022/01/28 05:31:28;;;;;;;;;34.75;27.00;;;;;9.18;76.47;102790.41;4958846;28;46742;-78
2022/01/28 05:33:54;;;;;;;;;37.00;28.25;;;;;9.30;76.51;102806.66;4959136;28;45613;-80
2022/01/28 05:36:19;;;;;;;;;38.00;30.50;;;;;9.14;76.39;102790.56;4964693;28;45584;-80
2022/01/28 05:38:45;;;;;;;;;25.25;16.75;;;;;9.27;76.54;102825.91;4998089;28;45688;-78
2022/01/28 05:41:11;;;;;;;;;31.00;26.50;;;;;9.26;76.32;102824.19;4997670;28;46363;-80
2022/01/28 05:43:36;;;;;;;;;35.75;29.25;;;;;9.14;76.48;102795.78;4997928;28;46145;-80
2022/01/28 05:46:02;;;;;;;;;29.25;26.50;;;;;9.12;76.38;102806.28;4998074;28;45565;-79
2022/01/28 05:48:27;;;;;;;;;33.25;26.75;;;;;9.16;76.22;102822.75;4998110;28;45740;-79
2022/01/28 05:50:52;;;;;;;;;33.50;25.75;;;;;9.07;76.15;102809.97;4997866;28;46558;-81
2022/01/28 05:53:18;;;;;;;;;40.75;32.00;;;;;9.14;76.35;102830.66;4998195;28;46161;-81
2022/01/28 05:55:43;;;;;;;;;31.25;26.50;;;;;9.14;76.44;102829.78;5029119;28;45678;-80
2022/01/28 05:58:09;;;;;;;;;33.75;28.00;;;;;9.13;76.27;102833.28;5056470;28;45561;-81
2022/01/28 06:00:34;;;;;;;;;29.50;24.00;;;;;9.11;76.39;102849.06;5056691;28;45514;-78
2022/01/28 06:03:00;;;;;;;;;36.50;30.50;;;;;9.10;76.25;102859.53;5071994;28;47145;-77
2022/01/28 06:05:31;;;;;;;;;38.75;28.00;;;;;9.09;76.33;102860.44;5056640;28;45570;-79
2022/01/28 06:08:01;;;;;;;;;32.25;28.00;;;;;9.02;76.27;102851.91;5056867;28;45501;-76
2022/01/28 06:10:27;;;;;;;;;46.25;36.25;;;;;9.08;76.24;102866.56;5056561;28;46438;-80
2022/01/28 06:12:53;;;;;;;;;37.00;29.75;;;;;9.09;75.92;102866.53;5056589;28;45610;-81
2022/01/28 06:15:18;;;;;;;;;34.75;28.75;;;;;8.97;76.00;102837.25;5056667;28;45931;-82
2022/01/28 06:17:44;;;;;;;;;34.25;28.25;;;;;9.12;76.17;102853.34;5038543;28;45619;-79
2022/01/28 06:20:12;;;;;;;;;33.75;26.25;;;;;9.14;76.10;102853.31;5056803;28;45581;-79
2022/01/28 06:22:39;;;;;;;;;35.00;29.75;;;;;9.11;75.94;102851.66;5056256;28;46263;-79
2022/01/28 06:25:05;;;;;;;;;34.00;27.00;;;;;9.09;75.91;102848.22;5056751;28;45859;-80
2022/01/28 06:27:31;;;;;;;;;28.50;25.75;;;;;9.16;75.90;102856.75;5072162;28;45612;-77
2022/01/28 06:29:56;;;;;;;;;35.00;29.75;;;;;9.11;75.76;102853.44;5056482;28;45609;-79
2022/01/28 06:32:21;;;;;;;;;28.50;25.50;;;;;9.14;75.86;102850.72;5071678;28;46534;-79
2022/01/28 06:34:47;;;;;;;;;31.25;29.00;;;;;8.98;75.82;102818.06;5057169;28;45646;-81
2022/01/28 06:40:34;;;;;;;;;32.00;28.75;;;;;9.16;75.58;102856.75;5059378;28;45717;-80
2022/01/28 06:43:00;;;;;;;;;34.50;27.75;;;;;9.16;76.02;102860.25;5069565;28;45469;-79
2022/01/28 06:45:25;;;;;;;;;33.25;25.75;;;;;9.12;75.70;102842.91;5071378;28;45527;-81
2022/01/28 06:47:51;;;;;;;;;36.50;27.00;;;;;9.20;75.83;102853.16;5070892;28;45663;-80
2022/01/28 06:50:16;;;;;;;;;28.75;21.50;;;;;9.23;75.78;102866.16;5042975;28;47514;-79
2022/01/28 06:52:42;;;;;;;;;34.50;29.50;;;;;9.17;75.61;102855.88;5059756;28;46059;-80
2022/01/28 06:55:09;;;;;;;;;31.50;23.00;;;;;9.30;75.44;102874.66;5059359;28;45639;-79
2022/01/28 06:57:35;;;;;;;;;49.50;31.25;;;;;9.31;75.84;102872.00;5056912;28;45746;-80
2022/01/28 07:00:01;;;;;;;;;37.00;26.25;;;;;9.32;75.76;102862.41;5056375;28;46687;-80
2022/01/28 07:02:26;;;;;;;;;28.50;21.75;;;;;9.34;75.60;102871.91;5056429;28;45572;-80
2022/01/28 07:04:52;;;;;;;;;35.75;29.50;;;;;9.35;75.54;102880.59;5056144;28;45590;-79
2022/01/28 07:10:39;;;;;;;;;35.50;29.75;;;;;9.35;75.53;102881.47;5055176;28;45967;-79
2022/01/28 07:13:05;;;;;;;;;37.25;26.25;;;;;9.32;75.25;102878.94;5055654;28;45641;-82
2022/01/28 07:15:31;;;;;;;;;31.00;22.75;;;;;9.27;75.34;102871.25;5055276;28;45443;-81
2022/01/28 07:18:02;;;;;;;;;35.00;25.25;;;;;9.24;75.34;102883.53;5055797;28;45518;-81
2022/01/28 07:20:33;;;;;;;;;40.00;30.00;;;;;9.21;75.18;102881.03;5054917;28;46663;-82
2022/01/28 07:22:59;;;;;;;;;34.50;28.50;;;;;9.15;75.19;102883.81;5055177;28;46045;-80
2022/01/28 07:25:25;;;;;;;;;29.25;25.50;;;;;9.14;75.11;102882.09;5056029;28;45753;-78
2022/01/28 07:27:50;;;;;;;;;34.50;30.75;;;;;9.07;75.15;102884.00;5056327;28;45678;-78
2022/01/28 07:30:16;;;;;;;;;32.25;27.50;;;;;9.16;75.13;102903.84;5055568;28;45688;-80
2022/01/28 07:32:42;;;;;;;;;43.75;31.00;;;;;9.12;75.10;102902.22;5055659;28;46072;-80
2022/01/28 07:35:08;;;;;;;;;37.75;31.75;;;;;9.17;74.86;102909.03;5055505;28;45628;-80
2022/01/28 07:40:57;;;;;;;;;41.25;32.25;;;;;9.19;74.83;102912.44;5054344;28;45600;-79
2022/01/28 07:43:22;;;;;;;;;33.75;29.75;;;;;9.22;74.74;102916.75;5055600;28;45598;-78
2022/01/28 07:45:48;;;;;;;;;39.00;32.50;;;;;9.13;74.93;102899.53;5055499;28;45692;-79
2022/01/28 07:48:13;;;;;;;;;33.50;27.25;;;;;9.21;74.98;102923.72;5055135;28;45534;-79
2022/01/28 07:50:39;;;;;;;;;38.50;30.50;;;;;9.26;74.50;102929.69;5055048;28;45595;-77
2022/01/28 07:56:26;;;;;;;;;35.00;27.75;;;;;9.30;74.59;102942.66;5054646;28;45663;-78
2022/01/28 07:58:51;;;;;;;;;28.75;25.00;;;;;9.31;74.43;102939.16;5055354;28;45663;-77
2022/01/28 08:01:16;;;;;;;;;40.00;29.50;;;;;9.33;74.38;102942.59;5054940;28;45561;-79
2022/01/28 08:03:42;;;;;;;;;35.25;30.50;;;;;9.24;74.46;102922.75;5054795;28;46290;-79
2022/01/28 08:06:07;;;;;;;;;41.25;30.50;;;;;9.32;74.07;102938.25;5054947;28;46058;-78
2022/01/28 08:08:33;;;;;;;;;35.25;29.25;;;;;9.36;74.24;102950.34;5054958;28;45879;-79
2022/01/28 08:10:58;;;;;;;;;40.00;29.25;;;;;9.09;74.20;102913.59;5054106;28;46468;-78
2022/01/28 08:13:23;;;;;;;;;35.00;25.75;;;;;9.31;74.19;102955.69;5054899;28;46055;-79
2022/01/28 08:15:49;;;;;;;;;38.50;27.50;;;;;9.31;73.95;102965.31;5054701;28;45750;-76
2022/01/28 08:18:15;;;;;;;;;36.25;31.25;;;;;9.25;74.16;102959.34;5054541;28;45628;-80
2022/01/28 08:20:40;;;;;;;;;31.00;26.00;;;;;9.17;74.12;102940.41;5054360;28;45814;-79
2022/01/28 08:26:28;;;;;;;;;41.50;35.00;;;;;9.13;74.01;102944.00;5054682;28;45533;-79
2022/01/28 08:28:54;;;;;;;;;35.25;30.00;;;;;9.18;74.09;102960.41;5054668;28;45736;-80
2022/01/28 08:31:20;;;;;;;;;34.50;29.75;;;;;9.18;73.93;102956.94;5054797;28;45762;-79
2022/01/28 08:33:45;;;;;;;;;31.00;26.75;;;;;9.17;74.00;102950.00;5054677;28;46608;-78
2022/01/28 08:36:11;;;;;;;;;38.50;29.75;;;;;9.19;74.03;102967.34;5052709;28;45723;-81
2022/01/28 08:38:44;;;;;;;;;31.75;26.50;;;;;9.26;73.96;102976.75;5053582;28;45910;-82
2022/01/28 08:41:13;;;;;;;;;34.50;28.25;;;;;9.28;74.10;102984.56;5054479;28;46448;-82
2022/01/28 08:43:42;;;;;;;;;25.75;23.75;;;;;9.27;73.72;102990.69;5054602;28;45596;-81
2022/01/28 08:46:08;;;;;;;;;33.00;27.25;;;;;9.12;73.86;102962.34;5055764;28;45629;-81
2022/01/28 08:48:33;;;;;;;;;40.00;30.25;;;;;9.21;73.88;102986.50;5056880;28;45621;-81
2022/01/28 08:50:59;;;;;;;;;39.25;26.75;;;;;9.26;73.84;103007.28;5056181;28;46421;-81
2022/01/28 08:56:46;;;;;;;;;28.00;22.25;;;;;9.25;73.53;103001.19;5055906;28;45791;-82
2022/01/28 08:59:11;;;;;;;;;27.00;16.75;;;;;9.27;73.55;103011.63;5037706;28;45655;-80
2022/01/28 09:01:37;;;;;;;;;16.75;12.50;;;;;9.13;73.55;103005.88;5056061;28;45720;-80
2022/01/28 09:04:03;;;;;;;;;42.75;28.00;;;;;9.09;73.44;103005.13;5056366;28;45688;-77
2022/01/28 09:06:28;;;;;;;;;38.75;28.75;;;;;9.19;73.45;103026.66;5054904;28;45395;-77
2022/01/28 09:08:58;;;;;;;;;35.50;27.00;;;;;9.11;73.33;103023.41;5059609;28;45485;-76
2022/01/28 09:13:50;;;;;;;;;28.25;23.75;;;;;9.16;73.33;103029.34;5076200;28;45049;-81
2022/01/28 09:16:17;;;;;;;;;31.25;23.00;;;;;9.12;73.23;103022.50;5077095;28;45067;-81
2022/01/28 09:18:42;;;;;;;;;29.50;24.75;;;;;9.22;73.04;103024.84;5073217;28;45258;-77
2022/01/28 09:21:08;;;;;;;;;32.50;26.25;;;;;8.97;73.14;102991.50;5076479;28;45347;-78
2022/01/28 09:26:55;;;;;;;;;34.75;28.75;;;;;9.14;72.90;103034.63;5075522;28;45172;-79
2022/01/28 09:29:22;;;;;;;;;27.50;21.00;;;;;9.17;72.92;103033.69;5066964;28;45710;-79
2022/01/28 09:31:49;;;;;;;;;23.25;21.00;;;;;9.14;72.85;103024.16;5061885;28;45868;-79
2022/01/28 09:34:14;;;;;;;;;30.00;25.50;;;;;9.17;72.94;103034.56;5063223;28;46159;-81
2022/01/28 09:36:43;;;;;;;;;27.50;24.50;;;;;9.06;72.95;103020.91;5062334;28;45499;-78
2022/01/28 09:39:08;;;;;;;;;22.00;21.25;;;;;9.12;72.84;103032.97;5059455;28;45510;-79
2022/01/28 09:41:35;;;;;;;;;28.75;25.75;;;;;9.23;72.88;103038.78;5058154;28;45830;-79
2022/01/28 09:44:02;;;;;;;;;33.75;25.75;;;;;9.25;72.78;103039.56;5059706;28;46095;-77
2022/01/28 09:46:28;;;;;;;;;28.00;20.25;;;;;9.21;72.88;103036.19;5060413;28;45965;-78
2022/01/28 09:48:54;;;;;;;;;26.50;23.00;;;;;9.16;72.84;103018.91;5058627;28;45613;-77
2022/01/28 09:51:19;;;;;;;;;21.50;20.75;;;;;9.00;72.59;102999.28;5057496;28;46613;-78
2022/01/28 09:57:06;;;;;;;;;26.25;17.50;;;;;9.09;72.44;103019.94;5056879;28;45700;-80
2022/01/28 09:59:33;;;;;;;;;17.75;15.75;;;;;9.14;72.77;103029.38;5057432;28;45797;-81
2022/01/28 10:01:58;;;;;;;;;29.75;22.25;;;;;9.15;72.61;103027.63;5057425;28;46430;-79
2022/01/28 10:04:24;;;;;;;;;27.75;24.75;;;;;9.14;72.45;103025.91;5057610;28;45578;-80
2022/01/28 10:06:49;;;;;;;;;25.75;21.00;;;;;9.18;72.34;103033.63;5057651;28;45692;-80
2022/01/28 10:09:19;;;;;;;;;28.50;24.75;;;;;9.29;72.56;103041.19;5057228;28;45554;-79
2022/01/28 10:11:50;;;;;;;;;34.25;24.50;;;;;9.33;72.45;103050.69;5057808;28;46652;-78
2022/01/28 10:14:19;;;;;;;;;24.75;21.50;;;;;9.36;72.48;103049.75;5057493;28;46100;-79
2022/01/28 10:17:03;;;;;;;;;26.75;21.00;;;;;9.38;72.41;103048.81;5056691;28;45622;-81
2022/01/28 10:19:40;;;;;;;;;20.50;15.75;;;;;9.38;72.38;103053.19;5056827;28;45473;-77
2022/01/28 10:22:19;;;;;;;;;20.00;16.25;;;;;9.33;72.60;103042.84;5056731;28;45635;-80
2022/01/28 10:24:45;;;;;;;;;18.00;15.75;;;;;9.35;72.32;103054.13;5056633;28;46219;-80
2022/01/28 10:27:10;;;;;;;;;24.25;16.00;;;;;9.35;72.47;103054.13;5072147;28;45603;-79
2022/01/28 10:29:43;;;;;;;;;25.50;18.25;;;;;9.36;72.38;103054.97;5057710;28;45551;-80
2022/01/28 10:32:11;;;;;;;;;20.75;18.75;;;;;9.42;72.27;103052.19;5057153;28;46644;-81
2022/01/28 10:34:50;;;;;;;;;26.75;21.75;;;;;9.39;72.17;103053.16;5073334;28;47052;-80
2022/01/28 10:37:18;;;;;;;;;21.50;20.00;;;;;9.39;72.18;103052.31;5057672;28;45843;-78
2022/01/28 10:39:46;;;;;;;;;27.50;17.50;;;;;9.53;72.11;103055.38;5060742;28;45856;-78
2022/01/28 10:42:16;;;;;;;;;26.75;19.75;;;;;9.52;72.11;103045.81;5059878;28;46413;-78
2022/01/28 10:44:58;;;;;;;;;25.50;21.00;;;;;9.67;72.19;103066.31;5061021;28;46323;-78
2022/01/28 10:47:39;;;;;;;;;21.00;17.50;;;;;9.73;71.99;103068.78;5058920;28;45488;-80
2022/01/28 10:50:30;;;;;;;;;25.00;19.75;;;;;9.79;71.85;103065.97;5056598;28;45615;-79
2022/01/28 10:53:03;;;;;;;;;26.75;19.00;;;;;9.79;71.80;103071.22;5056425;28;45667;-79
2022/01/28 10:55:35;;;;;;;;;32.25;19.25;;;;;9.79;71.97;103062.50;5056487;28;46418;-80
2022/01/28 10:58:08;;;;;;;;;27.75;18.50;;;;;9.81;71.77;103063.34;5056407;28;45530;-81
2022/01/28 11:00:36;;;;;;;;;28.00;21.00;;;;;9.95;71.81;103087.34;5054949;28;45649;-79
2022/01/28 11:03:04;;;;;;;;;29.00;21.75;;;;;9.80;71.72;103046.75;5056572;28;46038;-82
2022/01/28 11:05:32;;;;;;;;;22.25;21.00;;;;;9.84;71.69;103050.13;5056209;28;46064;-81
2022/01/28 11:08:00;;;;;;;;;25.25;20.00;;;;;9.98;71.57;103066.31;5061890;28;45711;-83
2022/01/28 11:10:25;;;;;;;;;23.75;22.00;;;;;9.99;71.41;103071.50;5077014;28;45544;-84
2022/01/28 11:12:52;;;;;;;;;22.25;18.75;;;;;10.13;71.54;103080.72;5058289;28;46665;-83
2022/01/28 11:15:18;;;;;;;;;24.50;18.75;;;;;9.95;71.26;103048.06;5057250;28;46076;-82
2022/01/28 11:17:43;;;;;;;;;20.25;18.25;;;;;10.20;71.42;103077.06;5055672;28;45518;-81
2022/01/28 11:20:12;;;;;;;;;27.00;19.50;;;;;10.15;71.21;103058.81;5055455;28;45638;-80
2022/01/28 11:23:02;;;;;;;;;28.75;20.75;;;;;10.16;71.28;103051.81;5055068;28;46787;-79
2022/01/28 11:25:43;;;;;;;;;24.25;22.50;;;;;10.30;71.23;103054.91;5054930;28;46115;-78
2022/01/28 11:28:11;;;;;;;;;28.75;23.00;;;;;10.30;70.96;103052.31;5055018;28;45585;-80
2022/01/28 11:30:48;;;;;;;;;25.50;23.75;;;;;10.33;71.01;103058.28;5055131;28;45816;-78
2022/01/28 11:33:15;;;;;;;;;30.50;23.00;;;;;10.36;71.17;103059.97;5055361;28;45617;-80
2022/01/28 11:35:59;;;;;;;;;32.00;25.00;;;;;10.38;70.78;103059.00;5055312;28;45920;-80
2022/01/28 11:38:24;;;;;;;;;25.00;18.25;;;;;10.40;70.93;103057.22;5055029;28;45511;-79
2022/01/28 11:41:13;;;;;;;;;24.25;18.75;;;;;10.43;70.78;103054.47;5054964;28;45666;-77
2022/01/28 11:43:52;;;;;;;;;25.75;21.25;;;;;10.43;70.81;103046.63;5055066;28;46356;-79
2022/01/28 11:46:17;;;;;;;;;23.50;19.00;;;;;10.44;70.86;103042.25;5055428;28;45863;-79
2022/01/28 11:48:52;;;;;;;;;33.00;24.25;;;;;10.46;70.83;103038.69;5055200;28;45648;-80
2022/01/28 11:51:23;;;;;;;;;22.50;15.75;;;;;10.44;70.78;103030.00;5055177;28;45861;-79
2022/01/28 11:53:54;;;;;;;;;28.50;19.25;;;;;10.46;70.56;103033.44;5054210;28;46485;-78
2022/01/28 11:56:21;;;;;;;;;19.25;15.50;;;;;10.47;70.48;103021.19;5055030;28;45851;-80
2022/01/28 11:58:58;;;;;;;;;23.50;17.25;;;;;10.47;70.37;103029.06;5055012;28;45739;-80
2022/01/28 12:01:44;;;;;;;;;23.75;18.75;;;;;10.35;70.39;103016.34;5055253;28;45669;-80
2022/01/28 12:04:36;;;;;;;;;24.25;19.00;;;;;10.38;70.15;103022.31;4955436;28;45664;-78
2022/01/28 12:07:10;;;;;;;;;22.25;18.00;;;;;10.36;70.22;103016.28;4936483;28;46327;-78
2022/01/28 12:09:37;;;;;;;;;17.50;16.50;;;;;10.29;70.17;102991.19;4936449;28;45989;-79
2022/01/28 12:12:14;;;;;;;;;20.50;16.25;;;;;10.15;70.05;102972.38;4936131;28;45775;-79
2022/01/28 12:14:48;;;;;;;;;20.25;16.50;;;;;10.35;69.96;103000.63;4934937;28;47562;-81
2022/01/28 12:17:32;;;;;;;;;24.25;15.50;;;;;10.33;69.67;102990.16;4948767;28;46336;-80
2022/01/28 12:20:22;;;;;;;;;23.25;18.00;;;;;10.21;69.64;102982.69;4934480;28;45585;-79
2022/01/28 12:26:11;;;;;;;;;20.25;18.00;;;;;10.31;69.65;102983.28;4934186;28;46098;-81
2022/01/28 12:28:36;;;;;;;;;23.50;17.25;;;;;10.30;69.45;102978.94;4934179;28;46125;-79
2022/01/28 12:31:06;;;;;;;;;18.75;17.00;;;;;10.30;69.58;102978.94;4933488;28;45581;-80
2022/01/28 12:33:37;;;;;;;;;19.50;18.25;;;;;10.19;69.58;102950.47;4934021;28;45855;-80
2022/01/28 12:36:08;;;;;;;;;18.50;16.50;;;;;10.28;69.60;102960.63;4949137;28;46390;-79
2022/01/28 12:42:02;;;;;;;;;18.50;16.00;;;;;10.31;69.38;102954.47;4961229;28;45938;-77
2022/01/28 12:44:31;;;;;;;;;21.25;18.25;;;;;10.20;69.51;102948.72;5028930;28;45830;-79
2022/01/28 12:47:03;;;;;;;;;19.50;17.25;;;;;10.23;69.42;102969.56;5056178;28;46835;-79
2022/01/28 12:49:32;;;;;;;;;23.00;19.00;;;;;10.25;69.26;102970.38;5056098;28;46056;-79
2022/01/28 12:52:03;;;;;;;;;24.00;19.75;;;;;10.25;69.11;102989.56;5055786;28;45648;-79
2022/01/28 12:57:51;;;;;;;;;28.00;22.25;;;;;10.33;69.53;102978.84;5054366;28;46200;-79
2022/01/28 13:00:16;;;;;;;;;23.50;19.00;;;;;10.21;69.30;102953.88;5069916;28;46115;-79
2022/01/28 13:02:43;;;;;;;;;19.00;18.00;;;;;10.31;69.09;102962.31;5053053;28;45677;-79
2022/01/28 13:05:15;;;;;;;;;25.00;18.00;;;;;10.06;69.18;102926.38;5054087;28;45523;-80
2022/01/28 13:13:57;;;;;;;;;21.50;17.75;;;;;10.24;69.22;102966.03;5059614;28;45779;-80
2022/01/28 13:16:37;;;;;;;;;28.75;20.50;;;;;10.11;68.96;102966.38;5061304;28;45697;-80
2022/01/28 13:19:05;;;;;;;;;19.25;18.50;;;;;10.10;69.13;102964.66;5062468;28;45620;-80
2022/01/28 13:21:32;;;;;;;;;24.50;22.50;;;;;10.10;68.94;102976.91;5058652;28;48163;-78
2022/01/28 13:24:14;;;;;;;;;23.75;20.25;;;;;10.00;68.96;102959.75;5057336;28;45562;-79
2022/01/28 13:27:03;;;;;;;;;24.00;22.25;;;;;10.11;69.18;102973.38;5057680;28;45587;-80
2022/01/28 13:29:43;;;;;;;;;21.00;17.00;;;;;10.14;69.15;102972.44;5057953;28;45689;-78
2022/01/28 13:32:14;;;;;;;;;22.25;18.25;;;;;10.05;68.99;102958.72;5057737;28;46025;-79
2022/01/28 13:34:52;;;;;;;;;22.50;19.75;;;;;10.16;69.04;102968.88;5057655;28;45612;-79
2022/01/28 13:37:41;;;;;;;;;18.50;18.00;;;;;10.17;69.24;102961.88;5057115;28;45805;-77
2022/01/28 13:40:11;;;;;;;;;18.50;17.00;;;;;10.18;68.74;102969.69;5056876;28;45950;-79
2022/01/28 13:42:54;;;;;;;;;22.00;20.00;;;;;10.19;68.86;102955.72;5021197;28;47425;-78
2022/01/28 13:45:50;;;;;;;;;28.25;21.75;;;;;10.22;69.04;102959.97;5036627;28;45678;-80
2022/01/28 13:48:46;;;;;;;;;21.00;18.75;;;;;10.23;68.82;102951.22;5035972;28;45640;-79
2022/01/28 13:51:19;;;;;;;;;25.00;23.00;;;;;10.24;68.90;102955.56;5036415;28;45595;-76
2022/01/28 13:57:08;;;;;;;;;21.75;19.00;;;;;10.17;68.80;102944.41;5033799;28;45831;-80
2022/01/28 13:59:35;;;;;;;;;19.00;16.75;;;;;10.13;68.69;102941.91;5036123;28;45818;-78
2022/01/28 14:02:01;;;;;;;;;20.50;18.25;;;;;10.06;68.87;102915.91;5036037;28;45931;-81
2022/01/28 14:04:39;;;;;;;;;18.50;17.00;;;;;10.21;68.80;102937.28;5037343;28;45984;-80
2022/01/28 14:07:19;;;;;;;;;23.75;19.75;;;;;10.18;68.67;102932.16;5036758;28;45601;-78
2022/01/28 14:13:22;;;;;;;;;18.75;17.00;;;;;9.83;68.60;102873.00;5035869;28;45687;-80